sensor_id;sensor_type;location;lat;lon;timestamp;temperature
37772;DS18B20;23610;59.380;24.642;2023-05-10T00:01:17;4.31
37772;DS18B20;23610;59.380;24.642;2023-05-10T00:06:19;4.25
37772;DS18B20;23610;59.380;24.642;2023-05-10T00:11:22;4.06
37772;DS18B20;23610;59.380;24.642;2023-05-10T00:16:25;4.19
37772;DS18B20;23610;59.380;24.642;2023-05-10T00:21:27;4.25
37772;DS18B20;23610;59.380;24.642;2023-05-10T00:26:30;4.19
37772;DS18B20;23610;59.380;24.642;2023-05-10T00:31:33;4.13
37772;DS18B20;23610;59.380;24.642;2023-05-10T00:36:36;4.06
37772;DS18B20;23610;59.380;24.642;2023-05-10T00:41:38;4.06
37772;DS18B20;23610;59.380;24.642;2023-05-10T00:46:42;4.06
37772;DS18B20;23610;59.380;24.642;2023-05-10T00:51:45;3.88
37772;DS18B20;23610;59.380;24.642;2023-05-10T00:56:47;3.69
37772;DS18B20;23610;59.380;24.642;2023-05-10T01:01:51;3.69
37772;DS18B20;23610;59.380;24.642;2023-05-10T01:06:54;3.75
37772;DS18B20;23610;59.380;24.642;2023-05-10T01:11:57;3.81
37772;DS18B20;23610;59.380;24.642;2023-05-10T01:17:00;3.75
37772;DS18B20;23610;59.380;24.642;2023-05-10T01:22:11;3.75
37772;DS18B20;23610;59.380;24.642;2023-05-10T01:33:15;3.38
37772;DS18B20;23610;59.380;24.642;2023-05-10T01:49:29;3.13
37772;DS18B20;23610;59.380;24.642;2023-05-10T01:54:33;3.31
37772;DS18B20;23610;59.380;24.642;2023-05-10T01:59:39;3.13
37772;DS18B20;23610;59.380;24.642;2023-05-10T02:04:45;3.13
37772;DS18B20;23610;59.380;24.642;2023-05-10T02:09:48;2.94
37772;DS18B20;23610;59.380;24.642;2023-05-10T02:14:52;3.19
37772;DS18B20;23610;59.380;24.642;2023-05-10T02:19:56;3.31
37772;DS18B20;23610;59.380;24.642;2023-05-10T02:25:01;3.19
37772;DS18B20;23610;59.380;24.642;2023-05-10T02:30:06;3.19
37772;DS18B20;23610;59.380;24.642;2023-05-10T02:35:10;3.38
37772;DS18B20;23610;59.380;24.642;2023-05-10T02:40:13;3.31
37772;DS18B20;23610;59.380;24.642;2023-05-10T02:45:22;3.38
37772;DS18B20;23610;59.380;24.642;2023-05-10T02:50:28;3.44
37772;DS18B20;23610;59.380;24.642;2023-05-10T02:55:36;3.44
37772;DS18B20;23610;59.380;24.642;2023-05-10T03:00:39;3.63
37772;DS18B20;23610;59.380;24.642;2023-05-10T03:05:42;3.50
37772;DS18B20;23610;59.380;24.642;2023-05-10T03:11:27;3.56
37772;DS18B20;23610;59.380;24.642;2023-05-10T03:16:34;3.63
37772;DS18B20;23610;59.380;24.642;2023-05-10T03:21:41;3.69
37772;DS18B20;23610;59.380;24.642;2023-05-10T03:26:48;4.00
37772;DS18B20;23610;59.380;24.642;2023-05-10T03:31:52;4.25
37772;DS18B20;23610;59.380;24.642;2023-05-10T03:36:55;4.56
37772;DS18B20;23610;59.380;24.642;2023-05-10T03:41:59;4.88
37772;DS18B20;23610;59.380;24.642;2023-05-10T03:47:02;4.88
37772;DS18B20;23610;59.380;24.642;2023-05-10T03:52:05;5.00
37772;DS18B20;23610;59.380;24.642;2023-05-10T03:57:08;5.13
37772;DS18B20;23610;59.380;24.642;2023-05-10T04:02:10;5.69
37772;DS18B20;23610;59.380;24.642;2023-05-10T04:07:13;6.25
37772;DS18B20;23610;59.380;24.642;2023-05-10T04:12:16;6.81
37772;DS18B20;23610;59.380;24.642;2023-05-10T04:17:19;7.31
37772;DS18B20;23610;59.380;24.642;2023-05-10T04:22:21;7.63
37772;DS18B20;23610;59.380;24.642;2023-05-10T04:27:24;8.00
37772;DS18B20;23610;59.380;24.642;2023-05-10T04:32:26;8.19
37772;DS18B20;23610;59.380;24.642;2023-05-10T04:37:29;8.50
37772;DS18B20;23610;59.380;24.642;2023-05-10T04:42:32;8.44
37772;DS18B20;23610;59.380;24.642;2023-05-10T04:47:34;8.63
37772;DS18B20;23610;59.380;24.642;2023-05-10T04:52:37;8.75
37772;DS18B20;23610;59.380;24.642;2023-05-10T04:57:39;8.88
37772;DS18B20;23610;59.380;24.642;2023-05-10T05:02:45;8.88
37772;DS18B20;23610;59.380;24.642;2023-05-10T05:07:48;8.75
37772;DS18B20;23610;59.380;24.642;2023-05-10T05:12:51;8.88
37772;DS18B20;23610;59.380;24.642;2023-05-10T05:17:54;9.06
37772;DS18B20;23610;59.380;24.642;2023-05-10T05:22:56;9.19
37772;DS18B20;23610;59.380;24.642;2023-05-10T05:27:59;9.38
37772;DS18B20;23610;59.380;24.642;2023-05-10T05:33:01;9.38
37772;DS18B20;23610;59.380;24.642;2023-05-10T05:38:04;9.50
37772;DS18B20;23610;59.380;24.642;2023-05-10T05:43:07;9.56
37772;DS18B20;23610;59.380;24.642;2023-05-10T05:48:09;9.56
37772;DS18B20;23610;59.380;24.642;2023-05-10T05:53:12;9.69
37772;DS18B20;23610;59.380;24.642;2023-05-10T05:58:15;9.88
37772;DS18B20;23610;59.380;24.642;2023-05-10T06:03:18;10.19
37772;DS18B20;23610;59.380;24.642;2023-05-10T06:08:21;10.56
37772;DS18B20;23610;59.380;24.642;2023-05-10T06:13:24;10.88
37772;DS18B20;23610;59.380;24.642;2023-05-10T06:18:27;11.19
37772;DS18B20;23610;59.380;24.642;2023-05-10T06:23:29;11.44
37772;DS18B20;23610;59.380;24.642;2023-05-10T06:28:32;11.81
37772;DS18B20;23610;59.380;24.642;2023-05-10T06:33:35;12.13
37772;DS18B20;23610;59.380;24.642;2023-05-10T06:38:38;12.38
37772;DS18B20;23610;59.380;24.642;2023-05-10T06:43:40;12.31
37772;DS18B20;23610;59.380;24.642;2023-05-10T06:48:43;12.44
37772;DS18B20;23610;59.380;24.642;2023-05-10T06:53:46;12.88
37772;DS18B20;23610;59.380;24.642;2023-05-10T06:58:49;12.94
37772;DS18B20;23610;59.380;24.642;2023-05-10T07:03:52;12.81
37772;DS18B20;23610;59.380;24.642;2023-05-10T07:08:54;12.69
37772;DS18B20;23610;59.380;24.642;2023-05-10T07:13:57;12.56
37772;DS18B20;23610;59.380;24.642;2023-05-10T07:19:00;12.81
37772;DS18B20;23610;59.380;24.642;2023-05-10T07:24:02;13.25
37772;DS18B20;23610;59.380;24.642;2023-05-10T07:29:05;13.63
37772;DS18B20;23610;59.380;24.642;2023-05-10T07:34:08;14.00
37772;DS18B20;23610;59.380;24.642;2023-05-10T07:39:11;14.25
37772;DS18B20;23610;59.380;24.642;2023-05-10T07:44:22;14.38
37772;DS18B20;23610;59.380;24.642;2023-05-10T07:49:26;14.56
37772;DS18B20;23610;59.380;24.642;2023-05-10T07:54:28;14.44
37772;DS18B20;23610;59.380;24.642;2023-05-10T07:59:31;14.81
37772;DS18B20;23610;59.380;24.642;2023-05-10T08:04:35;15.19
37772;DS18B20;23610;59.380;24.642;2023-05-10T08:09:37;15.00
37772;DS18B20;23610;59.380;24.642;2023-05-10T08:14:40;14.81
37772;DS18B20;23610;59.380;24.642;2023-05-10T08:19:43;15.06
37772;DS18B20;23610;59.380;24.642;2023-05-10T08:24:45;15.69
37772;DS18B20;23610;59.380;24.642;2023-05-10T08:29:48;15.81
37772;DS18B20;23610;59.380;24.642;2023-05-10T08:34:51;15.63
37772;DS18B20;23610;59.380;24.642;2023-05-10T08:39:54;15.88
37772;DS18B20;23610;59.380;24.642;2023-05-10T08:44:57;15.75
37772;DS18B20;23610;59.380;24.642;2023-05-10T08:50:03;15.75
37772;DS18B20;23610;59.380;24.642;2023-05-10T08:55:06;16.13
37772;DS18B20;23610;59.380;24.642;2023-05-10T09:00:11;16.38
37772;DS18B20;23610;59.380;24.642;2023-05-10T09:05:13;16.25
37772;DS18B20;23610;59.380;24.642;2023-05-10T09:10:19;16.69
37772;DS18B20;23610;59.380;24.642;2023-05-10T09:15:22;16.63
37772;DS18B20;23610;59.380;24.642;2023-05-10T09:20:24;17.00
37772;DS18B20;23610;59.380;24.642;2023-05-10T09:25:27;16.81
37772;DS18B20;23610;59.380;24.642;2023-05-10T09:30:31;17.00
37772;DS18B20;23610;59.380;24.642;2023-05-10T09:35:34;16.94
37772;DS18B20;23610;59.380;24.642;2023-05-10T09:40:36;16.81
37772;DS18B20;23610;59.380;24.642;2023-05-10T09:45:41;16.94
37772;DS18B20;23610;59.380;24.642;2023-05-10T09:50:44;16.75
37772;DS18B20;23610;59.380;24.642;2023-05-10T09:55:47;17.31
37772;DS18B20;23610;59.380;24.642;2023-05-10T10:00:51;17.38
37772;DS18B20;23610;59.380;24.642;2023-05-10T10:05:54;17.31
37772;DS18B20;23610;59.380;24.642;2023-05-10T10:10:58;17.69
37772;DS18B20;23610;59.380;24.642;2023-05-10T10:16:01;17.56
37772;DS18B20;23610;59.380;24.642;2023-05-10T10:21:07;17.63
37772;DS18B20;23610;59.380;24.642;2023-05-10T10:26:11;17.63
37772;DS18B20;23610;59.380;24.642;2023-05-10T10:36:29;18.06
37772;DS18B20;23610;59.380;24.642;2023-05-10T10:41:49;17.63
37772;DS18B20;23610;59.380;24.642;2023-05-10T10:57:26;17.50
37772;DS18B20;23610;59.380;24.642;2023-05-10T11:02:45;17.25
37772;DS18B20;23610;59.380;24.642;2023-05-10T11:07:59;17.38
37772;DS18B20;23610;59.380;24.642;2023-05-10T11:13:07;17.44
37772;DS18B20;23610;59.380;24.642;2023-05-10T11:18:28;17.19
37772;DS18B20;23610;59.380;24.642;2023-05-10T11:28:46;16.88
37772;DS18B20;23610;59.380;24.642;2023-05-10T11:33:53;17.06
37772;DS18B20;23610;59.380;24.642;2023-05-10T11:38:57;17.00
37772;DS18B20;23610;59.380;24.642;2023-05-10T11:43:59;17.31
37772;DS18B20;23610;59.380;24.642;2023-05-10T11:49:02;17.19
37772;DS18B20;23610;59.380;24.642;2023-05-10T11:54:11;16.63
37772;DS18B20;23610;59.380;24.642;2023-05-10T11:59:14;16.50
37772;DS18B20;23610;59.380;24.642;2023-05-10T12:04:17;16.56
37772;DS18B20;23610;59.380;24.642;2023-05-10T12:09:20;16.69
37772;DS18B20;23610;59.380;24.642;2023-05-10T12:14:41;17.13
37772;DS18B20;23610;59.380;24.642;2023-05-10T12:19:43;17.69
37772;DS18B20;23610;59.380;24.642;2023-05-10T12:24:46;17.69
37772;DS18B20;23610;59.380;24.642;2023-05-10T12:29:48;17.56
37772;DS18B20;23610;59.380;24.642;2023-05-10T12:34:53;17.50
37772;DS18B20;23610;59.380;24.642;2023-05-10T12:39:55;17.50
37772;DS18B20;23610;59.380;24.642;2023-05-10T12:44:58;17.25
37772;DS18B20;23610;59.380;24.642;2023-05-10T12:50:02;17.31
37772;DS18B20;23610;59.380;24.642;2023-05-10T12:55:05;17.19
37772;DS18B20;23610;59.380;24.642;2023-05-10T13:00:08;17.19
37772;DS18B20;23610;59.380;24.642;2023-05-10T13:05:11;16.94
37772;DS18B20;23610;59.380;24.642;2023-05-10T13:10:15;16.88
37772;DS18B20;23610;59.380;24.642;2023-05-10T13:20:41;16.81
37772;DS18B20;23610;59.380;24.642;2023-05-10T13:25:45;17.06
37772;DS18B20;23610;59.380;24.642;2023-05-10T13:30:47;16.69
37772;DS18B20;23610;59.380;24.642;2023-05-10T13:35:50;16.94
37772;DS18B20;23610;59.380;24.642;2023-05-10T13:40:54;16.63
37772;DS18B20;23610;59.380;24.642;2023-05-10T13:45:56;16.50
37772;DS18B20;23610;59.380;24.642;2023-05-10T13:50:59;16.69
37772;DS18B20;23610;59.380;24.642;2023-05-10T13:56:02;16.69
37772;DS18B20;23610;59.380;24.642;2023-05-10T14:01:05;16.75
37772;DS18B20;23610;59.380;24.642;2023-05-10T14:06:08;16.88
37772;DS18B20;23610;59.380;24.642;2023-05-10T14:11:11;16.88
37772;DS18B20;23610;59.380;24.642;2023-05-10T14:16:13;16.63
37772;DS18B20;23610;59.380;24.642;2023-05-10T14:21:17;16.69
37772;DS18B20;23610;59.380;24.642;2023-05-10T14:26:19;16.69
37772;DS18B20;23610;59.380;24.642;2023-05-10T14:31:22;16.75
37772;DS18B20;23610;59.380;24.642;2023-05-10T14:36:41;16.69
37772;DS18B20;23610;59.380;24.642;2023-05-10T14:41:43;16.75
37772;DS18B20;23610;59.380;24.642;2023-05-10T14:46:47;16.56
37772;DS18B20;23610;59.380;24.642;2023-05-10T14:51:51;16.56
37772;DS18B20;23610;59.380;24.642;2023-05-10T14:56:53;16.38
37772;DS18B20;23610;59.380;24.642;2023-05-10T15:01:56;16.31
37772;DS18B20;23610;59.380;24.642;2023-05-10T15:06:59;16.31
37772;DS18B20;23610;59.380;24.642;2023-05-10T15:12:02;16.50
37772;DS18B20;23610;59.380;24.642;2023-05-10T15:17:06;16.50
37772;DS18B20;23610;59.380;24.642;2023-05-10T15:22:09;16.44
37772;DS18B20;23610;59.380;24.642;2023-05-10T15:27:12;16.13
37772;DS18B20;23610;59.380;24.642;2023-05-10T15:32:15;16.06
37772;DS18B20;23610;59.380;24.642;2023-05-10T15:37:17;16.00
37772;DS18B20;23610;59.380;24.642;2023-05-10T15:42:20;16.13
37772;DS18B20;23610;59.380;24.642;2023-05-10T15:47:24;16.19
37772;DS18B20;23610;59.380;24.642;2023-05-10T15:52:26;16.31
37772;DS18B20;23610;59.380;24.642;2023-05-10T15:57:29;16.13
37772;DS18B20;23610;59.380;24.642;2023-05-10T16:02:32;16.00
37772;DS18B20;23610;59.380;24.642;2023-05-10T16:07:35;15.81
37772;DS18B20;23610;59.380;24.642;2023-05-10T16:12:38;15.75
37772;DS18B20;23610;59.380;24.642;2023-05-10T16:17:41;15.50
37772;DS18B20;23610;59.380;24.642;2023-05-10T16:22:44;15.56
37772;DS18B20;23610;59.380;24.642;2023-05-10T16:27:46;15.63
37772;DS18B20;23610;59.380;24.642;2023-05-10T16:32:49;15.44
37772;DS18B20;23610;59.380;24.642;2023-05-10T16:37:52;15.44
37772;DS18B20;23610;59.380;24.642;2023-05-10T16:42:55;15.44
37772;DS18B20;23610;59.380;24.642;2023-05-10T16:47:58;15.38
37772;DS18B20;23610;59.380;24.642;2023-05-10T16:53:00;15.31
37772;DS18B20;23610;59.380;24.642;2023-05-10T16:58:03;15.25
37772;DS18B20;23610;59.380;24.642;2023-05-10T17:03:05;15.38
37772;DS18B20;23610;59.380;24.642;2023-05-10T17:08:09;15.44
37772;DS18B20;23610;59.380;24.642;2023-05-10T17:13:11;15.38
37772;DS18B20;23610;59.380;24.642;2023-05-10T17:18:14;15.38
37772;DS18B20;23610;59.380;24.642;2023-05-10T17:23:16;15.13
37772;DS18B20;23610;59.380;24.642;2023-05-10T17:28:19;15.00
37772;DS18B20;23610;59.380;24.642;2023-05-10T17:33:21;14.81
37772;DS18B20;23610;59.380;24.642;2023-05-10T17:38:24;14.50
37772;DS18B20;23610;59.380;24.642;2023-05-10T17:43:26;14.25
37772;DS18B20;23610;59.380;24.642;2023-05-10T17:48:29;14.06
37772;DS18B20;23610;59.380;24.642;2023-05-10T17:53:33;13.75
37772;DS18B20;23610;59.380;24.642;2023-05-10T17:58:36;13.63
37772;DS18B20;23610;59.380;24.642;2023-05-10T18:03:39;13.38
37772;DS18B20;23610;59.380;24.642;2023-05-10T18:08:43;13.13
37772;DS18B20;23610;59.380;24.642;2023-05-10T18:13:46;12.88
37772;DS18B20;23610;59.380;24.642;2023-05-10T18:18:48;12.56
37772;DS18B20;23610;59.380;24.642;2023-05-10T18:23:51;12.38
37772;DS18B20;23610;59.380;24.642;2023-05-10T18:28:53;12.06
37772;DS18B20;23610;59.380;24.642;2023-05-10T18:33:56;11.88
37772;DS18B20;23610;59.380;24.642;2023-05-10T18:38:59;11.63
37772;DS18B20;23610;59.380;24.642;2023-05-10T18:44:01;11.44
37772;DS18B20;23610;59.380;24.642;2023-05-10T18:49:04;11.25
37772;DS18B20;23610;59.380;24.642;2023-05-10T18:54:07;11.13
37772;DS18B20;23610;59.380;24.642;2023-05-10T18:59:11;10.88
37772;DS18B20;23610;59.380;24.642;2023-05-10T19:04:14;10.81
37772;DS18B20;23610;59.380;24.642;2023-05-10T19:09:16;10.63
37772;DS18B20;23610;59.380;24.642;2023-05-10T19:14:21;10.50
37772;DS18B20;23610;59.380;24.642;2023-05-10T19:19:29;10.25
37772;DS18B20;23610;59.380;24.642;2023-05-10T19:24:33;10.19
37772;DS18B20;23610;59.380;24.642;2023-05-10T19:29:35;10.13
37772;DS18B20;23610;59.380;24.642;2023-05-10T19:34:38;9.81
37772;DS18B20;23610;59.380;24.642;2023-05-10T19:39:41;9.75
37772;DS18B20;23610;59.380;24.642;2023-05-10T19:44:43;9.63
37772;DS18B20;23610;59.380;24.642;2023-05-10T19:49:46;9.63
37772;DS18B20;23610;59.380;24.642;2023-05-10T19:54:48;9.38
37772;DS18B20;23610;59.380;24.642;2023-05-10T19:59:51;9.38
37772;DS18B20;23610;59.380;24.642;2023-05-10T20:04:54;9.19
37772;DS18B20;23610;59.380;24.642;2023-05-10T20:09:56;9.25
37772;DS18B20;23610;59.380;24.642;2023-05-10T20:14:59;9.06
37772;DS18B20;23610;59.380;24.642;2023-05-10T20:20:01;9.00
37772;DS18B20;23610;59.380;24.642;2023-05-10T20:25:05;9.00
37772;DS18B20;23610;59.380;24.642;2023-05-10T20:30:09;8.94
37772;DS18B20;23610;59.380;24.642;2023-05-10T20:35:12;8.81
37772;DS18B20;23610;59.380;24.642;2023-05-10T20:40:14;8.81
37772;DS18B20;23610;59.380;24.642;2023-05-10T20:45:18;8.56
37772;DS18B20;23610;59.380;24.642;2023-05-10T20:50:21;8.63
37772;DS18B20;23610;59.380;24.642;2023-05-10T20:55:23;8.63
37772;DS18B20;23610;59.380;24.642;2023-05-10T21:00:26;8.31
37772;DS18B20;23610;59.380;24.642;2023-05-10T21:05:29;8.25
37772;DS18B20;23610;59.380;24.642;2023-05-10T21:10:32;8.25
37772;DS18B20;23610;59.380;24.642;2023-05-10T21:15:35;8.19
37772;DS18B20;23610;59.380;24.642;2023-05-10T21:20:37;8.19
37772;DS18B20;23610;59.380;24.642;2023-05-10T21:25:40;8.19
37772;DS18B20;23610;59.380;24.642;2023-05-10T21:30:42;8.13
37772;DS18B20;23610;59.380;24.642;2023-05-10T21:35:45;7.94
37772;DS18B20;23610;59.380;24.642;2023-05-10T21:40:47;7.88
37772;DS18B20;23610;59.380;24.642;2023-05-10T21:45:50;7.75
37772;DS18B20;23610;59.380;24.642;2023-05-10T21:50:52;7.69
37772;DS18B20;23610;59.380;24.642;2023-05-10T21:55:55;7.69
37772;DS18B20;23610;59.380;24.642;2023-05-10T22:00:58;7.75
37772;DS18B20;23610;59.380;24.642;2023-05-10T22:06:00;7.75
37772;DS18B20;23610;59.380;24.642;2023-05-10T22:11:03;7.69
37772;DS18B20;23610;59.380;24.642;2023-05-10T22:16:06;7.56
37772;DS18B20;23610;59.380;24.642;2023-05-10T22:21:09;7.56
37772;DS18B20;23610;59.380;24.642;2023-05-10T22:26:12;7.44
37772;DS18B20;23610;59.380;24.642;2023-05-10T22:31:14;7.38
37772;DS18B20;23610;59.380;24.642;2023-05-10T22:36:17;7.44
37772;DS18B20;23610;59.380;24.642;2023-05-10T22:41:21;7.31
37772;DS18B20;23610;59.380;24.642;2023-05-10T22:46:24;7.25
37772;DS18B20;23610;59.380;24.642;2023-05-10T22:51:27;7.31
37772;DS18B20;23610;59.380;24.642;2023-05-10T22:56:30;7.25
37772;DS18B20;23610;59.380;24.642;2023-05-10T23:01:33;7.25
37772;DS18B20;23610;59.380;24.642;2023-05-10T23:06:35;7.13
37772;DS18B20;23610;59.380;24.642;2023-05-10T23:11:38;7.06
37772;DS18B20;23610;59.380;24.642;2023-05-10T23:16:40;6.94
37772;DS18B20;23610;59.380;24.642;2023-05-10T23:21:43;6.75
37772;DS18B20;23610;59.380;24.642;2023-05-10T23:26:47;6.75
37772;DS18B20;23610;59.380;24.642;2023-05-10T23:31:53;6.75
37772;DS18B20;23610;59.380;24.642;2023-05-10T23:36:55;6.69
37772;DS18B20;23610;59.380;24.642;2023-05-10T23:41:58;6.56
37772;DS18B20;23610;59.380;24.642;2023-05-10T23:47:01;6.56
37772;DS18B20;23610;59.380;24.642;2023-05-10T23:52:04;6.50
37772;DS18B20;23610;59.380;24.642;2023-05-10T23:57:06;6.44
